createdAt,value
2018-09-04T00:01:11.278Z,34.80
2018-09-04T00:03:39.941Z,35.23
2018-09-04T00:06:08.704Z,33.60
2018-09-04T00:08:37.499Z,33.63
2018-09-04T00:11:06.128Z,31.70
2018-09-04T00:13:34.679Z,35.27
2018-09-04T00:16:10.026Z,34.83
2018-09-04T00:18:40.036Z,33.37
2018-09-04T00:21:08.871Z,31.97
2018-09-04T00:23:37.640Z,32.80
2018-09-04T00:26:06.693Z,30.77
2018-09-04T00:28:35.274Z,30.37
2018-09-04T00:31:03.879Z,32.30
2018-09-04T00:33:32.628Z,30.90
2018-09-04T00:36:01.273Z,30.10
2018-09-04T00:38:30.420Z,30.90
2018-09-04T00:40:59.039Z,32.80
2018-09-04T00:43:27.629Z,29.23
2018-09-04T00:45:56.897Z,31.40
2018-09-04T00:48:25.387Z,33.37
2018-09-04T00:50:54.320Z,34.07
2018-09-04T00:53:22.993Z,28.00
2018-09-04T00:55:51.501Z,32.17
2018-09-04T00:58:20.039Z,30.23
2018-09-04T01:00:48.639Z,33.03
2018-09-04T01:03:17.324Z,36.97
2018-09-04T01:05:46.015Z,30.97
2018-09-04T01:08:14.695Z,33.47
2018-09-04T01:10:43.207Z,33.33
2018-09-04T01:13:11.763Z,33.93
2018-09-04T01:15:40.287Z,31.73
2018-09-04T01:18:09.317Z,36.43
2018-09-04T01:20:37.797Z,31.50
2018-09-04T01:23:06.930Z,35.90
2018-09-04T01:25:35.423Z,31.40
2018-09-04T01:28:03.986Z,32.57
2018-09-04T01:30:32.515Z,31.60
2018-09-04T01:33:01.006Z,34.13
2018-09-04T01:35:29.632Z,33.83
2018-09-04T01:37:58.396Z,35.97
2018-09-04T01:40:27.038Z,34.63
2018-09-04T01:42:55.539Z,32.53
2018-09-04T01:45:24.144Z,37.43
2018-09-04T01:47:52.676Z,38.97
2018-09-04T01:50:21.233Z,36.87
2018-09-04T01:52:49.722Z,36.33
2018-09-04T01:55:18.280Z,38.40
2018-09-04T01:57:47.025Z,34.40
2018-09-04T02:00:15.745Z,31.33
2018-09-04T02:02:44.606Z,34.13
2018-09-04T02:05:13.155Z,38.60
2018-09-04T02:07:41.654Z,36.03
2018-09-04T02:10:10.162Z,39.07
2018-09-04T02:12:38.839Z,44.40
2018-09-04T02:15:07.633Z,49.03
2018-09-04T02:17:36.354Z,53.87
2018-09-04T02:20:05.552Z,48.93
2018-09-04T02:22:34.076Z,53.00
2018-09-04T02:25:02.828Z,53.27
2018-09-04T02:27:31.766Z,49.90
2018-09-04T02:30:00.526Z,49.67
2018-09-04T02:32:29.256Z,52.40
2018-09-04T02:34:57.841Z,44.97
2018-09-04T02:37:26.403Z,40.97
2018-09-04T02:39:54.916Z,41.10
2018-09-04T02:42:23.774Z,33.90
2018-09-04T02:44:52.610Z,37.80
2018-09-04T02:47:21.202Z,32.67
2018-09-04T02:49:49.771Z,36.17
2018-09-04T02:52:18.313Z,34.23
2018-09-04T02:54:46.811Z,37.10
2018-09-04T02:57:15.316Z,36.57
2018-09-04T02:59:43.836Z,39.37
2018-09-04T03:02:12.487Z,42.23
2018-09-04T03:04:41.071Z,40.50
2018-09-04T03:07:09.603Z,42.47
2018-09-04T03:09:38.490Z,44.33
2018-09-04T03:12:07.286Z,45.97
2018-09-04T03:14:36.066Z,41.17
2018-09-04T03:17:04.592Z,43.60
2018-09-04T03:19:33.322Z,40.03
2018-09-04T03:22:01.840Z,40.57
2018-09-04T03:24:30.566Z,43.73
2018-09-04T03:26:59.083Z,46.30
2018-09-04T03:29:27.679Z,44.10
2018-09-04T03:31:56.394Z,44.50
2018-09-04T03:34:25.252Z,45.20
2018-09-04T03:36:54.089Z,46.90
2018-09-04T03:39:22.907Z,47.80
2018-09-04T03:41:51.416Z,51.23
2018-09-04T03:44:20.241Z,47.90
2018-09-04T03:46:49.328Z,56.23
2018-09-04T03:49:17.925Z,45.10
2018-09-04T03:51:46.536Z,49.03
2018-09-04T03:54:15.022Z,44.50
2018-09-04T03:56:43.557Z,40.33
2018-09-04T03:59:12.111Z,43.60
2018-09-04T04:01:40.775Z,41.23
2018-09-04T04:04:09.528Z,44.43
2018-09-04T04:06:38.212Z,53.10
2018-09-04T04:09:08.912Z,43.83
2018-09-04T04:11:37.436Z,47.93
2018-09-04T04:14:06.340Z,54.70
2018-09-04T04:16:35.003Z,51.07
2018-09-04T04:19:03.864Z,56.00
2018-09-04T04:21:32.748Z,53.43
2018-09-04T04:24:01.641Z,53.90
2018-09-04T04:26:30.221Z,69.20
2018-09-04T04:28:58.933Z,57.43
2018-09-04T04:31:27.457Z,56.10
2018-09-04T04:33:56.081Z,55.83
2018-09-04T04:36:24.611Z,55.13
2018-09-04T04:38:53.191Z,59.37
2018-09-04T04:41:21.791Z,52.27
2018-09-04T04:43:50.383Z,51.53
2018-09-04T04:46:19.146Z,54.43
2018-09-04T04:48:47.956Z,52.67
2018-09-04T04:51:16.515Z,59.90
2018-09-04T04:53:45.036Z,62.13
2018-09-04T04:56:13.961Z,54.87
2018-09-04T04:58:42.500Z,56.50
2018-09-04T05:01:11.378Z,66.77
2018-09-04T05:03:39.936Z,61.20
2018-09-04T05:06:08.545Z,61.87
2018-09-04T05:08:37.089Z,58.67
2018-09-04T05:11:05.824Z,61.87
2018-09-04T05:13:34.249Z,84.07
2018-09-04T05:16:02.822Z,63.33
2018-09-04T05:18:31.404Z,64.50
2018-09-04T05:20:59.937Z,64.43
2018-09-04T05:23:28.507Z,64.83
2018-09-04T05:25:57.887Z,53.90
2018-09-04T05:28:26.623Z,58.40
2018-09-04T05:30:55.251Z,59.13
2018-09-04T05:33:33.162Z,51.23
2018-09-04T05:36:02.097Z,53.00
2018-09-04T05:38:30.819Z,51.43
2018-09-04T05:40:59.625Z,47.87
2018-09-04T05:43:31.104Z,55.67
2018-09-04T05:46:02.631Z,57.93
2018-09-04T05:48:31.548Z,54.03
2018-09-04T05:51:00.161Z,53.60
2018-09-04T05:53:28.886Z,52.53
2018-09-04T05:55:58.265Z,52.37
2018-09-04T05:58:26.771Z,50.10
2018-09-04T06:01:02.376Z,48.73
2018-09-04T06:03:30.932Z,52.93
2018-09-04T06:05:59.443Z,51.30
2018-09-04T06:08:28.040Z,52.77
2018-09-04T06:10:56.758Z,52.70
2018-09-04T06:13:25.714Z,50.97
2018-09-04T06:15:54.502Z,52.33
2018-09-04T06:18:23.228Z,54.43
2018-09-04T06:20:51.877Z,51.90
2018-09-04T06:23:20.694Z,53.73
2018-09-04T06:25:49.391Z,53.07
2018-09-04T06:28:17.919Z,50.13
2018-09-04T06:30:46.696Z,47.70
2018-09-04T06:33:15.283Z,48.60
2018-09-04T06:35:43.888Z,50.23
2018-09-04T06:38:12.500Z,47.07
2018-09-04T06:40:41.100Z,43.53
2018-09-04T06:43:09.586Z,42.07
2018-09-04T06:45:38.206Z,42.50
2018-09-04T06:48:06.913Z,37.83
2018-09-04T06:50:35.865Z,40.73
2018-09-04T06:53:04.631Z,40.27
2018-09-04T06:55:33.151Z,41.23
2018-09-04T06:58:01.986Z,39.10
2018-09-04T07:00:30.538Z,36.83
2018-09-04T07:02:59.428Z,35.83
2018-09-04T07:05:28.298Z,34.30
2018-09-04T07:07:56.828Z,32.60
2018-09-04T07:10:25.326Z,36.23
2018-09-04T07:12:53.979Z,33.20
2018-09-04T07:15:22.613Z,33.37
2018-09-04T07:17:51.183Z,34.10
2018-09-04T07:20:19.820Z,32.77
2018-09-04T07:22:48.940Z,30.13
2018-09-04T07:25:17.725Z,31.87
2018-09-04T07:27:46.236Z,33.53
2018-09-04T07:30:14.827Z,30.20
2018-09-04T07:32:43.328Z,34.33
2018-09-04T07:35:12.079Z,32.83
2018-09-04T07:37:40.919Z,33.20
2018-09-04T07:40:09.854Z,30.77
2018-09-04T07:42:38.836Z,31.33
2018-09-04T07:45:08.400Z,33.17
2018-09-04T07:47:37.029Z,33.60
2018-09-04T07:50:06.191Z,33.73
2018-09-04T07:52:34.936Z,31.17
2018-09-04T07:55:03.461Z,31.97
2018-09-04T07:57:32.316Z,28.17
2018-09-04T08:00:00.881Z,30.83
2018-09-04T08:02:29.476Z,28.13
2018-09-04T08:04:58.165Z,30.70
2018-09-04T08:07:26.845Z,31.47
2018-09-04T08:09:55.541Z,32.37
2018-09-04T08:12:24.029Z,30.80
2018-09-04T08:14:52.575Z,29.90
2018-09-04T08:17:21.112Z,27.50
2018-09-04T08:19:50.072Z,31.00
2018-09-04T08:22:18.997Z,25.43
2018-09-04T08:24:47.638Z,27.23
2018-09-04T08:27:16.684Z,26.60
2018-09-04T08:29:45.599Z,28.27
2018-09-04T08:32:14.706Z,26.57
2018-09-04T08:34:43.441Z,28.63
2018-09-04T08:37:12.774Z,25.37
2018-09-04T08:39:41.315Z,25.37
2018-09-04T08:42:10.026Z,24.37
2018-09-04T08:44:38.741Z,23.37
2018-09-04T08:47:07.622Z,26.10
2018-09-04T08:49:36.281Z,28.17
2018-09-04T08:52:04.896Z,25.00
2018-09-04T08:54:33.820Z,24.53
2018-09-04T08:57:02.560Z,24.93
2018-09-04T08:59:31.384Z,25.47
2018-09-04T09:02:00.156Z,25.80
2018-09-04T09:04:28.826Z,27.37
2018-09-04T09:06:57.730Z,27.47
2018-09-04T09:09:26.331Z,28.70
2018-09-04T09:11:54.932Z,26.80
2018-09-04T09:14:23.481Z,27.13
2018-09-04T09:16:52.094Z,26.43
2018-09-04T09:19:20.588Z,27.67
2018-09-04T09:21:49.176Z,26.90
2018-09-04T09:24:17.782Z,24.23
2018-09-04T09:26:46.702Z,26.12
2018-09-04T09:29:15.465Z,27.50
2018-09-04T09:31:44.223Z,26.95
2018-09-04T09:34:12.784Z,25.75
2018-09-04T09:36:41.688Z,26.85
2018-09-04T09:39:10.853Z,28.10
2018-09-04T09:41:40.105Z,27.82
2018-09-04T09:44:09.230Z,29.80
2018-09-04T09:46:38.195Z,28.47
2018-09-04T09:49:06.764Z,31.70
2018-09-04T09:51:35.298Z,33.00
2018-09-04T09:54:03.927Z,29.20
2018-09-04T09:56:32.611Z,26.10
2018-09-04T09:59:01.250Z,24.45
2018-09-04T10:01:30.958Z,23.10
2018-09-04T10:04:04.533Z,22.73
2018-09-04T10:06:33.280Z,20.10
2018-09-04T10:09:02.193Z,22.00
2018-09-04T10:11:30.767Z,21.80
2018-09-04T10:13:59.743Z,25.25
2018-09-04T10:16:28.355Z,20.25
2018-09-04T10:18:56.911Z,19.52
2018-09-04T10:21:25.550Z,19.92
2018-09-04T10:23:54.358Z,20.37
2018-09-04T10:26:22.961Z,18.65
2018-09-04T10:28:51.500Z,19.25
2018-09-04T10:31:20.414Z,18.35
2018-09-04T10:33:49.769Z,18.85
2018-09-04T10:36:18.335Z,20.25
2018-09-04T10:38:47.166Z,21.50
2018-09-04T10:41:16.121Z,17.12
2018-09-04T10:43:44.764Z,18.37
2018-09-04T10:46:14.960Z,16.80
2018-09-04T10:48:43.720Z,18.82
2018-09-04T10:51:12.528Z,17.87
2018-09-04T10:53:41.416Z,15.63
2018-09-04T10:56:09.991Z,16.90
2018-09-04T10:58:38.709Z,15.95
2018-09-04T11:01:07.310Z,15.60
2018-09-04T11:03:36.348Z,16.52
2018-09-04T11:06:04.941Z,16.85
2018-09-04T11:08:33.505Z,16.62
2018-09-04T11:11:02.251Z,15.72
2018-09-04T11:13:30.813Z,17.75
2018-09-04T11:15:59.516Z,15.53
2018-09-04T11:18:28.239Z,15.43
2018-09-04T11:20:56.859Z,16.75
2018-09-04T11:23:25.433Z,16.25
2018-09-04T11:25:53.923Z,20.62
2018-09-04T11:28:22.536Z,17.52
2018-09-04T11:30:51.188Z,17.65
2018-09-04T11:33:20.313Z,17.65
2018-09-04T11:35:48.967Z,14.85
2018-09-04T11:38:17.489Z,17.50
2018-09-04T11:40:46.377Z,16.17
2018-09-04T11:43:14.986Z,18.40
2018-09-04T11:45:43.748Z,15.58
2018-09-04T11:48:16.037Z,16.65
2018-09-04T11:50:44.937Z,18.57
2018-09-04T11:53:14.038Z,20.75
2018-09-04T11:55:43.103Z,17.45
2018-09-04T11:58:11.754Z,18.75
2018-09-04T12:00:43.496Z,24.27
2018-09-04T12:03:13.649Z,30.88
2018-09-04T12:05:42.580Z,29.70
2018-09-04T12:08:11.510Z,29.35
2018-09-04T12:10:40.802Z,29.65
2018-09-04T12:13:09.409Z,27.42
2018-09-04T12:15:39.864Z,28.35
2018-09-04T12:18:09.445Z,32.93
2018-09-04T12:20:44.390Z,25.17
2018-09-04T12:23:12.913Z,28.15
2018-09-04T12:25:42.072Z,29.00
2018-09-04T12:28:11.029Z,26.50
2018-09-04T12:30:39.884Z,25.85
2018-09-04T12:33:08.775Z,29.52
2018-09-04T12:35:37.368Z,25.60
2018-09-04T12:38:07.351Z,28.07
2018-09-04T12:40:36.227Z,26.52
2018-09-04T12:43:04.921Z,23.73
2018-09-04T12:45:39.335Z,26.30
2018-09-04T12:48:07.933Z,24.72
2018-09-04T12:50:37.516Z,23.67
2018-09-04T12:53:06.497Z,22.73
2018-09-04T12:55:35.082Z,28.52
2018-09-04T12:58:03.646Z,23.55
2018-09-04T13:00:32.287Z,26.48
2018-09-04T13:03:00.980Z,24.23
2018-09-04T13:05:30.021Z,26.57
2018-09-04T13:07:58.654Z,26.02
2018-09-04T13:10:27.683Z,24.18
2018-09-04T13:12:56.314Z,27.67
2018-09-04T13:15:25.128Z,24.32
2018-09-04T13:17:54.577Z,22.17
2018-09-04T13:20:23.343Z,33.53
2018-09-04T13:22:52.006Z,22.10
2018-09-04T13:25:20.634Z,22.87
2018-09-04T13:27:49.525Z,26.15
2018-09-04T13:30:18.060Z,24.75
2018-09-04T13:32:47.096Z,23.22
2018-09-04T13:35:16.017Z,22.35
2018-09-04T13:37:44.716Z,22.50
2018-09-04T13:40:13.509Z,21.77
2018-09-04T13:42:42.439Z,18.67
2018-09-04T13:45:11.013Z,23.38
2018-09-04T13:47:40.257Z,18.07
2018-09-04T13:50:09.271Z,16.97
2018-09-04T13:52:37.953Z,25.12
2018-09-04T13:55:07.053Z,19.67
2018-09-04T13:57:35.897Z,19.55
2018-09-04T14:00:04.591Z,20.37
2018-09-04T14:02:33.369Z,18.20
2018-09-04T14:05:02.005Z,16.40
2018-09-04T14:07:30.699Z,18.95
2018-09-04T14:09:59.800Z,16.73
2018-09-04T14:12:28.590Z,20.77
2018-09-04T14:14:57.170Z,16.32
2018-09-04T14:17:26.142Z,20.37
2018-09-04T14:19:55.110Z,18.02
2018-09-04T14:22:24.003Z,18.60
2018-09-04T14:24:52.697Z,18.32
2018-09-04T14:27:21.263Z,16.97
2018-09-04T14:29:53.967Z,16.02
2018-09-04T14:32:19.537Z,18.17
2018-09-04T14:34:48.553Z,15.43
2018-09-04T14:37:17.785Z,16.77
2018-09-04T14:39:55.584Z,14.60
2018-09-04T14:42:15.726Z,19.80
2018-09-04T14:44:44.738Z,21.27
2018-09-04T14:47:13.667Z,22.52
2018-09-04T14:49:42.328Z,19.62
2018-09-04T14:52:11.399Z,21.05
2018-09-04T14:54:40.285Z,18.42
2018-09-04T14:57:09.348Z,22.58
2018-09-04T14:59:37.937Z,21.42
2018-09-04T15:02:07.124Z,25.90
2018-09-04T15:04:36.080Z,24.23
2018-09-04T15:07:04.891Z,20.75
2018-09-04T15:09:33.469Z,24.67
2018-09-04T15:12:02.247Z,23.07
2018-09-04T15:14:31.070Z,20.93
2018-09-04T15:17:00.747Z,22.83
2018-09-04T15:19:30.121Z,22.43
2018-09-04T15:21:59.144Z,20.13
2018-09-04T15:24:28.261Z,21.30
2018-09-04T15:26:57.076Z,25.60
2018-09-04T15:29:25.960Z,22.90
2018-09-04T15:31:54.843Z,22.17
2018-09-04T15:34:23.551Z,22.17
2018-09-04T15:36:52.338Z,19.33
2018-09-04T15:39:21.047Z,22.97
2018-09-04T15:41:49.791Z,21.40
2018-09-04T15:44:18.568Z,21.33
2018-09-04T15:46:47.278Z,22.07
2018-09-04T15:49:21.440Z,21.70
2018-09-04T15:51:50.326Z,24.07
2018-09-04T15:54:19.286Z,22.13
2018-09-04T15:56:48.437Z,24.97
2018-09-04T15:59:17.376Z,24.60
2018-09-04T16:01:46.472Z,27.70
2018-09-04T16:04:16.319Z,26.27
2018-09-04T16:06:45.279Z,27.63
2018-09-04T16:09:14.063Z,26.00
2018-09-04T16:11:42.980Z,21.87
2018-09-04T16:14:11.888Z,25.33
2018-09-04T16:16:40.465Z,26.40
2018-09-04T16:19:09.261Z,29.20
2018-09-04T16:21:37.970Z,26.37
2018-09-04T16:24:07.029Z,28.27
2018-09-04T16:26:35.723Z,31.17
2018-09-04T16:29:05.008Z,29.57
2018-09-04T16:31:33.888Z,24.67
2018-09-04T16:34:02.772Z,25.80
2018-09-04T16:36:31.891Z,24.50
2018-09-04T16:39:00.857Z,24.60
2018-09-04T16:41:29.750Z,24.10
2018-09-04T16:43:58.520Z,22.50
2018-09-04T16:46:27.738Z,23.63
2018-09-04T16:48:56.730Z,24.87
2018-09-04T16:51:25.746Z,27.33
2018-09-04T16:53:55.269Z,27.37
2018-09-04T16:56:24.115Z,33.50
2018-09-04T16:58:53.073Z,28.73
2018-09-04T17:01:21.988Z,33.60
2018-09-04T17:03:50.879Z,28.80
2018-09-04T17:06:19.940Z,29.77
2018-09-04T17:08:48.944Z,33.20
2018-09-04T17:11:17.978Z,40.47
2018-09-04T17:13:47.072Z,42.30
2018-09-04T17:16:16.204Z,40.03
2018-09-04T17:18:45.004Z,35.53
2018-09-04T17:21:13.836Z,33.77
2018-09-04T17:23:42.910Z,36.00
2018-09-04T17:26:12.160Z,33.40
2018-09-04T17:28:41.297Z,39.37
2018-09-04T17:31:10.628Z,43.30
2018-09-04T17:33:39.523Z,48.73
2018-09-04T17:36:08.501Z,49.20
2018-09-04T17:38:37.302Z,51.87
2018-09-04T17:41:06.106Z,53.90
2018-09-04T17:43:34.884Z,56.33
2018-09-04T17:46:03.568Z,54.97
2018-09-04T17:48:32.499Z,58.07
2018-09-04T17:51:01.388Z,55.10
2018-09-04T17:53:31.741Z,44.03
2018-09-04T17:56:00.854Z,38.33
2018-09-04T17:58:29.884Z,43.83
2018-09-04T18:00:58.908Z,48.67
2018-09-04T18:03:28.008Z,58.47
2018-09-04T18:05:56.979Z,54.50
2018-09-04T18:08:26.072Z,55.83
2018-09-04T18:10:55.041Z,43.73
2018-09-04T18:13:23.893Z,41.23
2018-09-04T18:15:52.735Z,41.47
2018-09-04T18:18:21.538Z,41.97
2018-09-04T18:20:50.354Z,40.90
2018-09-04T18:23:19.080Z,49.50
2018-09-04T18:25:48.001Z,42.77
2018-09-04T18:28:16.782Z,46.10
2018-09-04T18:30:45.756Z,43.13
2018-09-04T18:33:14.441Z,47.70
2018-09-04T18:35:43.530Z,51.37
2018-09-04T18:38:12.302Z,51.33
2018-09-04T18:40:40.998Z,44.53
2018-09-04T18:43:09.743Z,44.43
2018-09-04T18:45:53.223Z,40.60
2018-09-04T18:48:22.612Z,38.03
2018-09-04T18:50:51.741Z,44.13
2018-09-04T18:53:20.466Z,44.63
2018-09-04T18:55:49.466Z,45.30
2018-09-04T18:58:18.190Z,48.10
2018-09-04T19:00:47.328Z,46.33
2018-09-04T19:03:16.141Z,40.27
2018-09-04T19:05:45.012Z,43.60
2018-09-04T19:08:13.789Z,39.83
2018-09-04T19:10:42.866Z,43.10
2018-09-04T19:13:11.727Z,49.80
2018-09-04T19:15:40.479Z,38.37
2018-09-04T19:18:09.237Z,40.53
2018-09-04T19:20:37.973Z,38.60
2018-09-04T19:23:06.615Z,37.27
2018-09-04T19:25:35.472Z,42.00
2018-09-04T19:28:04.591Z,39.67
2018-09-04T19:30:33.531Z,38.53
2018-09-04T19:33:02.413Z,37.63
2018-09-04T19:35:31.169Z,36.10
2018-09-04T19:37:59.943Z,29.57
2018-09-04T19:40:29.003Z,29.80
2018-09-04T19:42:57.656Z,38.50
2018-09-04T19:45:26.664Z,30.37
2018-09-04T19:47:55.788Z,31.53
2018-09-04T19:50:24.628Z,32.43
2018-09-04T19:52:53.666Z,28.93
2018-09-04T19:55:22.548Z,28.87
2018-09-04T19:57:51.846Z,33.20
2018-09-04T20:00:20.883Z,30.23
2018-09-04T20:02:49.457Z,38.23
2018-09-04T20:05:18.458Z,28.63
2018-09-04T20:07:47.319Z,30.97
2018-09-04T20:10:16.284Z,29.63
2018-09-04T20:12:45.123Z,33.17
2018-09-04T20:15:14.262Z,26.40
2018-09-04T20:17:43.592Z,32.83
2018-09-04T20:20:12.488Z,27.47
2018-09-04T20:22:41.112Z,30.07
2018-09-04T20:25:09.941Z,28.57
2018-09-04T20:27:38.959Z,33.70
2018-09-04T20:30:07.874Z,31.37
2018-09-04T20:32:36.824Z,30.20
2018-09-04T20:35:05.537Z,27.50
2018-09-04T20:37:34.516Z,38.57
2018-09-04T20:40:03.071Z,32.80
2018-09-04T20:42:31.807Z,29.67
2018-09-04T20:45:00.695Z,32.30
2018-09-04T20:47:29.243Z,27.63
2018-09-04T20:49:58.541Z,27.40
2018-09-04T20:52:27.066Z,29.03
2018-09-04T20:54:56.572Z,28.30
2018-09-04T20:57:31.465Z,27.73
2018-09-04T21:00:12.905Z,25.23
2018-09-04T21:02:52.903Z,27.10
2018-09-04T21:05:33.120Z,26.20
2018-09-04T21:08:14.403Z,25.53
2018-09-04T21:10:43.611Z,22.90
2018-09-04T21:13:12.940Z,25.30
2018-09-04T21:15:41.572Z,24.43
2018-09-04T21:18:10.275Z,25.87
2018-09-04T21:20:39.203Z,25.50
2018-09-04T21:23:07.808Z,26.33
2018-09-04T21:25:36.554Z,25.00
2018-09-04T21:28:05.346Z,23.43
2018-09-04T21:30:34.020Z,26.03
2018-09-04T21:33:02.924Z,23.90
2018-09-04T21:35:31.543Z,21.97
2018-09-04T21:38:00.164Z,25.03
2018-09-04T21:40:28.737Z,22.60
2018-09-04T21:42:57.678Z,27.70
2018-09-04T21:45:26.302Z,27.57
2018-09-04T21:47:55.011Z,27.60
2018-09-04T21:50:23.741Z,22.63
2018-09-04T21:52:52.316Z,24.10
2018-09-04T21:55:21.015Z,25.10
2018-09-04T21:57:49.560Z,25.33
2018-09-04T22:00:23.375Z,22.33
2018-09-04T22:02:52.067Z,28.13
2018-09-04T22:05:20.658Z,24.97
2018-09-04T22:07:49.324Z,23.47
2018-09-04T22:10:18.119Z,27.00
2018-09-04T22:12:46.692Z,23.60
2018-09-04T22:15:15.489Z,27.73
2018-09-04T22:17:44.104Z,25.23
2018-09-04T22:20:12.976Z,24.73
2018-09-04T22:22:41.560Z,22.10
2018-09-04T22:25:10.072Z,29.03
2018-09-04T22:27:38.948Z,28.93
2018-09-04T22:30:07.680Z,27.67
2018-09-04T22:32:36.238Z,31.10
2018-09-04T22:35:04.788Z,27.77
2018-09-04T22:37:33.340Z,24.13
2018-09-04T22:40:02.157Z,21.33
2018-09-04T22:42:30.728Z,25.50
2018-09-04T22:44:59.243Z,24.67
2018-09-04T22:47:28.282Z,25.90
2018-09-04T22:50:02.164Z,25.43
2018-09-04T22:52:31.975Z,27.97
2018-09-04T22:55:04.643Z,25.53
2018-09-04T22:57:33.374Z,23.67
2018-09-04T23:00:02.116Z,24.00
2018-09-04T23:02:30.899Z,26.57
2018-09-04T23:04:59.700Z,26.10
2018-09-04T23:07:28.599Z,23.57
2018-09-04T23:09:57.123Z,23.67
2018-09-04T23:12:25.812Z,25.03
2018-09-04T23:14:54.714Z,23.67
2018-09-04T23:17:23.479Z,22.07
2018-09-04T23:19:52.028Z,22.60
2018-09-04T23:22:20.616Z,23.37
2018-09-04T23:24:49.109Z,21.73
2018-09-04T23:27:17.600Z,23.47
2018-09-04T23:29:46.260Z,22.40
2018-09-04T23:32:14.832Z,21.70
2018-09-04T23:34:43.366Z,29.53
2018-09-04T23:37:11.966Z,24.70
2018-09-04T23:39:40.588Z,24.20
2018-09-04T23:42:09.108Z,25.13
2018-09-04T23:44:37.621Z,23.17
2018-09-04T23:47:06.475Z,24.03
2018-09-04T23:49:34.963Z,25.03
2018-09-04T23:52:03.675Z,28.20
2018-09-04T23:54:32.500Z,27.10
2018-09-04T23:57:01.080Z,24.43
2018-09-04T23:59:29.848Z,28.53
